WetterOnline ( https://www.wetteronline.de )

Wetter aktuell München

Aktuelles Wetter: München/Stadt (535m)

6-stündlich | Neueste Meldungen
Ortszeit Temperatur Wetter
Sa, 01.10. 14:00 10.5° C leichter Regen
Sa, 01.10. 8:00 8.7° C wolkig
Sa, 01.10. 2:00 10.1° C bedeckt
Fr, 30.09. 20:00 11.3° C bedeckt
Fr, 30.09. 14:00 11.8° C bedeckt
Fr, 30.09. 8:00 7.2° C wolkig
Fr, 30.09. 2:00 7.9° C bedeckt
Do, 29.09. 20:00 8.2° C leichter Regen
Ortszeit Temperatur Wetter
Sa, 01.10. 19:30 12.0° C bewölkt
Sa, 01.10. 19:20 12.0° C bewölkt
Sa, 01.10. 19:10 12.0° C bedeckt
Sa, 01.10. 19:00 11.9° C wolkig
Sa, 01.10. 18:50 11.9° C wolkig
Sa, 01.10. 18:40 11.7° C bedeckt
Sa, 01.10. 18:30 11.7° C bedeckt
Sa, 01.10. 18:00 11.7° C bewölkt
Sa, 01.10. 17:30 11.7° C bedeckt
Sa, 01.10. 17:00 11.5° C bewölkt
Sa, 01.10. 16:30 11.1° C bewölkt
Ortszeit Relative Feuchte Sichtweite
Sa, 01.10. 14:00 90% 18 km
Sa, 01.10. 8:00 87% 35 km
Sa, 01.10. 2:00 91% 30 km
Fr, 30.09. 20:00 82% 50 km
Fr, 30.09. 14:00 73% 55 km
Fr, 30.09. 8:00 97% 9 km
Fr, 30.09. 2:00 97% 7 km
Do, 29.09. 20:00 96% 18 km
Ortszeit Relative Feuchte Sichtweite
Sa, 01.10. 19:30 81% 60 km
Sa, 01.10. 19:20 81% -
Sa, 01.10. 19:10 81% -
Sa, 01.10. 19:00 82% >70 km
Sa, 01.10. 18:50 82% -
Sa, 01.10. 18:40 83% -
Sa, 01.10. 18:30 82% 65 km
Sa, 01.10. 18:00 82% 60 km
Sa, 01.10. 17:30 82% 60 km
Sa, 01.10. 17:00 84% >70 km
Sa, 01.10. 16:30 86% 65 km
Ortszeit Niederschlagsmenge Niederschlagsart
Sa, 01.10. 14:00 3 l/m2 in 6 Std. Regen
Sa, 01.10. 8:00 0.0 l/m2 in 12 Std. -
Sa, 01.10. 2:00 0.0 l/m2 in 6 Std. -
Fr, 30.09. 20:00 0.0 l/m2 in 12 Std. -
Fr, 30.09. 14:00 0.0 l/m2 in 6 Std. -
Fr, 30.09. 8:00 0.6 l/m2 in 12 Std. Regen
Fr, 30.09. 2:00 0.6 l/m2 in 6 Std. Regen
Do, 29.09. 20:00 3 l/m2 in 12 Std. Regen
Ortszeit Niederschlagsmenge Niederschlagsart
Sa, 01.10. 19:30 0.0 l/m2 in 1 Std. -
Sa, 01.10. 19:20 keine Meldung -
Sa, 01.10. 19:10 keine Meldung -
Sa, 01.10. 19:00 0.0 l/m2 in 1 Std. -
Sa, 01.10. 18:50 keine Meldung -
Sa, 01.10. 18:40 keine Meldung -
Sa, 01.10. 18:30 0.0 l/m2 in 1 Std. -
Sa, 01.10. 18:00 0.0 l/m2 in 1 Std. -
Sa, 01.10. 17:30 0.0 l/m2 in 1 Std. -
Sa, 01.10. 17:00 <0.05 l/m2 in 1 Std. Regen
Sa, 01.10. 16:30 <0.05 l/m2 in 1 Std. Schneeregen
Ortszeit Stärke Spitze Richtung
km/h Bft. km/h Grad Sektor
Sa, 01.10. 14:00 9 2 33 220° SW
Sa, 01.10. 8:00 9 2 17 200° S
Sa, 01.10. 2:00 7 2 11 220° SW
Fr, 30.09. 20:00 4 1 14 70° O
Fr, 30.09. 14:00 7 2 18 60° NO
Fr, 30.09. 8:00 2 1 9 80° O
Fr, 30.09. 2:00 4 1 14 30° NO
Do, 29.09. 20:00 4 1 14 90° O
Ortszeit Stärke Spitze Richtung
km/h Bft. km/h Grad Sektor
Sa, 01.10. 19:30 19 3 41 250° W
Sa, 01.10. 19:20 19 3 - 250° W
Sa, 01.10. 19:10 22 4 - 250° W
Sa, 01.10. 19:00 20 4 37 250° W
Sa, 01.10. 18:50 20 4 - 250° W
Sa, 01.10. 18:40 18 3 - 250° W
Sa, 01.10. 18:30 20 4 33 250° W
Sa, 01.10. 18:00 19 3 35 240° SW
Sa, 01.10. 17:30 14 3 36 250° W
Sa, 01.10. 17:00 18 3 36 240° SW
Sa, 01.10. 16:30 17 3 37 240° SW
Ortszeit Untergrenze Bedeckung Gattung
total tief tief mittel hoch
Sa, 01.10. 14:00 1260 m 8/8 8/8 - - -
Sa, 01.10. 8:00 6300 m 8/8 1/8 - - -
Sa, 01.10. 2:00 1500 m 8/8 8/8 - - -
Fr, 30.09. 20:00 1050 m 8/8 8/8 - - -
Fr, 30.09. 14:00 840 m 8/8 8/8 - - -
Fr, 30.09. 8:00 150 m 8/8 1/8 - - -
Fr, 30.09. 2:00 120 m 8/8 8/8 - - -
Do, 29.09. 20:00 1320 m 7/8 7/8 - - -
Ortszeit Bedeckungsgrad in Achtel und Wolkenuntergrenze
Sa, 01.10. 19:30 6(570m) 8(3600m) 8(4500m)
Sa, 01.10. 19:20 6(570m) 8(3600m) 8(4500m)
Sa, 01.10. 19:10 8
Sa, 01.10. 19:00 2(540m) 8(3900m)
Sa, 01.10. 18:50 2(540m) 8(3900m)
Sa, 01.10. 18:40 8
Sa, 01.10. 18:30 6(3600m) 8(4200m)
Sa, 01.10. 18:00 6(1320m) 6(3600m) 8(4500m)
Sa, 01.10. 17:30 5(990m) 8(1290m) 8(3600m)
Sa, 01.10. 17:00 6(1080m) 7(1320m) 8(3300m)
Sa, 01.10. 16:30 5(1050m) 8(3300m) 8(4200m)
Ortszeit Luftdruck NN (hPa) Tendenz (hPa in 3 Std.)
Sa, 01.10. 14:00 1015 + 0,4
Sa, 01.10. 8:00 1015 - 0,1
Sa, 01.10. 2:00 1015 + 1,2
Fr, 30.09. 20:00 1014 + 1,2
Fr, 30.09. 14:00 1012 + 1,0
Fr, 30.09. 8:00 1011 + 1,5
Fr, 30.09. 2:00 1008 + 0,7
Do, 29.09. 20:00 1006 + 1,5
Ortszeit Luftdruck NN (hPa) Tendenz (hPa in 3 Std.)
Sa, 01.10. 19:30 1015 + 1,2
Sa, 01.10. 19:20 1015 keine Meldung
Sa, 01.10. 19:10 1015 keine Meldung
Sa, 01.10. 19:00 1015 + 0,9
Sa, 01.10. 18:50 1015 keine Meldung
Sa, 01.10. 18:40 1015 keine Meldung
Sa, 01.10. 18:30 1015 + 0,5
Sa, 01.10. 18:00 1014 + 0,1
Sa, 01.10. 17:30 1014 + 0,2
Sa, 01.10. 17:00 1014 - 0,1
Sa, 01.10. 16:30 1014 0,0
Ortszeit Schneehöhe (cm)
Sa, 01.10. 14:00 0
Sa, 01.10. 8:00 0
Sa, 01.10. 2:00 0
Fr, 30.09. 20:00 0
Fr, 30.09. 14:00 0
Fr, 30.09. 8:00 0
Fr, 30.09. 2:00 0
Do, 29.09. 20:00 0
Ortszeit Schneehöhe (cm)
Sa, 01.10. 19:30 0
Sa, 01.10. 19:20 0
Sa, 01.10. 19:10 0
Sa, 01.10. 19:00 0
Sa, 01.10. 18:50 0
Sa, 01.10. 18:40 0
Sa, 01.10. 18:30 0
Sa, 01.10. 18:00 0
Sa, 01.10. 17:30 0
Sa, 01.10. 17:00 0
Sa, 01.10. 16:30 0
Link zu dieser Seite / Seite empfehlen

Das Wetter in ...